createdAt,value
2024-01-15T00:00:00.418Z,99910
2024-01-15T00:10:00.487Z,99890
2024-01-15T00:20:00.661Z,99900
2024-01-15T00:30:00.476Z,99890
2024-01-15T00:40:00.411Z,99840
2024-01-15T00:50:00.433Z,99840
2024-01-15T01:00:03.072Z,99860
2024-01-15T01:10:00.514Z,99810
2024-01-15T01:20:01.005Z,99830
2024-01-15T01:30:00.456Z,99820
2024-01-15T01:40:00.409Z,99840
2024-01-15T01:50:00.409Z,99850
2024-01-15T02:00:00.414Z,99830
2024-01-15T02:10:00.420Z,99820
2024-01-15T02:20:00.472Z,99840
2024-01-15T02:30:00.448Z,99790
2024-01-15T02:40:00.461Z,99820
2024-01-15T02:50:00.493Z,99830
2024-01-15T03:00:00.416Z,99840
2024-01-15T03:10:00.398Z,99840
2024-01-15T03:20:00.513Z,99820
2024-01-15T03:30:00.433Z,99840
2024-01-15T03:40:00.568Z,99810
2024-01-15T03:50:00.429Z,99820
2024-01-15T04:00:00.433Z,99790
2024-01-15T04:10:00.547Z,99790
2024-01-15T04:20:00.520Z,99780
2024-01-15T04:30:00.442Z,99780
2024-01-15T04:40:00.428Z,99770
2024-01-15T04:50:00.527Z,99770
2024-01-15T05:00:00.414Z,99760
2024-01-15T05:10:00.643Z,99760
2024-01-15T05:20:01.124Z,99760
2024-01-15T05:30:00.462Z,99750
2024-01-15T05:40:00.637Z,99750
2024-01-15T05:50:00.530Z,99760
2024-01-15T06:00:00.566Z,99770
2024-01-15T06:10:00.476Z,99760
2024-01-15T06:20:00.467Z,99730
2024-01-15T06:30:00.432Z,99740
2024-01-15T06:40:00.510Z,99690
2024-01-15T06:50:00.560Z,99700
2024-01-15T07:00:00.509Z,99710
2024-01-15T07:10:00.411Z,99690
2024-01-15T07:20:00.595Z,99680
2024-01-15T07:30:02.787Z,99730
2024-01-15T07:40:00.747Z,99740
2024-01-15T07:50:04.606Z,99740
2024-01-15T08:00:00.512Z,99740
2024-01-15T08:10:00.618Z,99760
2024-01-15T08:20:00.572Z,99750
2024-01-15T08:30:00.455Z,99730
2024-01-15T08:40:00.594Z,99720
2024-01-15T08:50:00.484Z,99730
2024-01-15T09:00:00.456Z,99750
2024-01-15T09:10:00.487Z,99750
2024-01-15T09:20:00.664Z,99750
2024-01-15T09:30:00.406Z,99750
2024-01-15T09:40:00.406Z,99760
2024-01-15T09:50:00.607Z,99760
2024-01-15T10:00:00.407Z,99750
2024-01-15T10:10:00.541Z,99750
2024-01-15T10:20:00.510Z,99750
2024-01-15T10:30:00.426Z,99750
2024-01-15T10:40:00.506Z,99750
2024-01-15T10:50:00.624Z,99760
2024-01-15T11:00:00.436Z,99760
2024-01-15T11:10:00.501Z,99760
2024-01-15T11:20:00.601Z,99750
2024-01-15T11:30:00.420Z,99750
2024-01-15T11:40:00.446Z,99790
2024-01-15T11:50:00.520Z,99790
2024-01-15T12:00:00.439Z,99800
2024-01-15T12:10:00.491Z,99810
2024-01-15T12:20:00.457Z,99820
2024-01-15T12:30:00.553Z,99800
2024-01-15T12:40:00.424Z,99800
2024-01-15T12:50:09.599Z,99810
2024-01-15T13:00:00.445Z,99820
2024-01-15T13:10:00.433Z,99840
2024-01-15T13:20:01.322Z,99850
2024-01-15T13:30:00.493Z,99840
2024-01-15T13:40:00.681Z,99830
2024-01-15T13:50:00.492Z,99860
2024-01-15T14:00:00.465Z,99880
2024-01-15T14:10:00.511Z,99880
2024-01-15T14:20:00.476Z,99910
2024-01-15T14:30:00.408Z,99900
2024-01-15T14:40:00.614Z,99920
2024-01-15T14:50:00.440Z,99930
2024-01-15T15:00:00.491Z,99950
2024-01-15T15:10:00.548Z,99970
2024-01-15T15:20:00.877Z,99940
2024-01-15T15:30:00.506Z,100000
2024-01-15T15:40:00.499Z,99990
2024-01-15T15:50:00.587Z,100000
2024-01-15T16:00:00.556Z,100020
2024-01-15T16:10:00.698Z,100050
2024-01-15T16:23:28.323Z,100040
2024-01-15T16:30:00.413Z,100030
2024-01-15T16:40:00.408Z,100070
2024-01-15T16:50:00.575Z,100070
2024-01-15T17:00:00.415Z,100060
2024-01-15T17:10:00.439Z,100060
2024-01-15T17:20:00.418Z,100120
2024-01-15T17:30:00.496Z,100130
2024-01-15T17:40:00.408Z,100110
2024-01-15T17:50:00.556Z,100130
2024-01-15T18:00:00.529Z,100160
2024-01-15T18:10:00.445Z,100160
2024-01-15T18:20:00.525Z,100180
2024-01-15T18:30:00.488Z,100200
2024-01-15T18:40:00.427Z,100200
2024-01-15T18:50:00.533Z,100210
2024-01-15T19:00:00.497Z,100210
2024-01-15T19:10:00.435Z,100210
2024-01-15T19:20:00.623Z,100240
2024-01-15T19:30:00.528Z,100250
2024-01-15T19:40:00.419Z,100270
2024-01-15T19:50:00.555Z,100280
2024-01-15T20:00:00.511Z,100280
2024-01-15T20:10:00.420Z,100290
2024-01-15T20:20:00.668Z,100280
2024-01-15T20:30:00.591Z,100300
2024-01-15T20:40:00.423Z,100320
2024-01-15T20:50:00.544Z,100300
2024-01-15T21:00:00.578Z,100330
2024-01-15T21:10:00.444Z,100300
2024-01-15T21:20:00.691Z,100320
2024-01-15T21:30:00.479Z,100340
2024-01-15T21:40:00.400Z,100370
2024-01-15T21:50:00.468Z,100380
2024-01-15T22:00:00.448Z,100390
2024-01-15T22:10:00.403Z,100390
2024-01-15T22:20:00.621Z,100420
2024-01-15T22:30:00.513Z,100430
2024-01-15T22:40:00.440Z,100440
2024-01-15T22:50:00.574Z,100440
2024-01-15T23:00:00.410Z,100430
2024-01-15T23:10:00.422Z,100470
2024-01-15T23:20:00.416Z,100460
2024-01-15T23:30:00.508Z,100460
2024-01-15T23:40:00.416Z,100470
2024-01-15T23:50:00.446Z,100500
